Time;durP1;ratioP1;P1;durP2;ratioP2;P2;SDS_P1;SDS_P2;PMS_P1;PMS_P2;Temp;Humidity;BMP_temperature;BMP_pressure;BME280_temperature;BME280_humidity;BME280_pressure;Samples;Min_cycle;Max_cycle;Signal;HPM_P1;HPM_P2
2023/02/26 00:00:02;;;;;;;;;;;6.00;62.00;;;4.67;49.47;100600.41;4989316;28;19925;-75
2023/02/26 00:02:29;;;;;;;;;;;5.90;62.30;;;4.67;49.45;100608.31;4984814;28;20008;-75
2023/02/26 00:04:56;;;;;;;;;;;5.90;62.40;;;4.69;49.77;100604.53;4990478;28;19936;-75
2023/02/26 00:07:28;;;;;;;;;;;5.90;62.70;;;4.68;49.41;100605.50;4972663;28;19930;-75
2023/02/26 00:09:55;;;;;;;;;;;5.90;62.50;;;4.58;49.49;100616.25;4990210;28;19957;-75
2023/02/26 00:12:22;;;;;;;;;;;5.80;62.30;;;4.59;49.96;100625.84;4990094;28;19933;-75
2023/02/26 00:14:50;;;;;;;;;;;5.80;62.80;;;4.54;50.14;100625.53;4991018;28;19929;-76
2023/02/26 00:17:37;;;;;;;;;;;5.80;62.80;;;4.46;49.79;100630.81;4989279;28;19929;-75
2023/02/26 00:20:07;;;;;;;;;;;5.80;62.60;;;4.51;50.29;100631.16;4992148;28;19930;-75
2023/02/26 00:22:36;;;;;;;;;;;5.80;63.00;;;4.43;50.02;100639.06;4990235;28;19997;-75
2023/02/26 00:25:04;;;;;;;;;;;5.70;62.80;;;4.25;50.13;100636.63;4990329;28;19933;-75
2023/02/26 00:27:31;;;;;;;;;;;5.60;62.90;;;4.14;49.65;100640.41;4989219;28;20466;-75
2023/02/26 00:29:58;;;;;;;;;;;5.60;62.60;;;3.98;50.43;100648.31;5003424;28;20386;-75
2023/02/26 00:32:26;;;;;;;;;;;5.50;62.80;;;3.94;50.95;100639.06;4977041;28;19965;-75
2023/02/26 00:34:53;;;;;;;;;;;5.40;63.20;;;4.14;50.85;100650.13;4972167;28;20485;-76
2023/02/26 00:37:31;;;;;;;;;;;5.40;63.80;;;4.16;50.09;100653.47;4988966;28;19929;-75
2023/02/26 00:40:14;;;;;;;;;;;5.40;63.90;;;4.19;50.53;100645.19;4971911;28;20277;-75
2023/02/26 00:42:41;;;;;;;;;;;5.40;64.20;;;4.02;50.47;100648.81;4973731;28;19925;-75
2023/02/26 00:45:10;;;;;;;;;;;5.40;63.40;;;4.04;50.60;100639.75;4994389;28;19940;-75
2023/02/26 00:47:42;;;;;;;;;;;5.30;63.80;;;4.12;50.36;100626.56;4989434;28;20383;-76
2023/02/26 00:50:15;;;;;;;;;;;5.30;64.00;;;4.21;50.50;100634.47;4971721;28;19976;-75
2023/02/26 00:52:49;;;;;;;;;;;5.40;64.00;;;4.19;50.08;100647.81;4989872;28;19930;-75
2023/02/26 00:55:18;;;;;;;;;;;5.40;63.50;;;4.30;50.24;100663.34;5000259;28;19926;-75
2023/02/26 00:57:45;;;;;;;;;;;5.40;63.90;;;4.19;50.62;100657.56;4979819;28;20310;-75
2023/02/26 01:00:14;;;;;;;;;;;5.40;63.90;;;4.27;50.52;100660.22;4975262;28;19925;-75
2023/02/26 01:02:41;;;;;;;;;;;5.50;64.00;;;4.33;50.74;100670.09;4983487;28;19937;-76
2023/02/26 01:05:10;;;;;;;;;;;5.40;64.00;;;4.34;50.83;100671.75;4972253;28;19933;-76
2023/02/26 01:07:41;;;;;;;;;;;5.50;64.10;;;4.34;50.72;100677.03;4988977;28;19926;-75
2023/02/26 01:10:10;;;;;;;;;;;5.50;64.20;;;4.23;50.22;100680.81;4972517;28;19933;-75
2023/02/26 01:12:39;;;;;;;;;;;5.50;63.70;;;4.11;51.07;100680.34;4988881;28;20453;-75
2023/02/26 01:15:07;;;;;;;;;;;5.50;64.10;;;4.00;51.05;100670.09;4992728;28;19936;-75
2023/02/26 01:17:40;;;;;;;;;;;5.40;64.00;;;4.14;50.88;100679.16;4992025;28;20426;-75
2023/02/26 01:20:10;;;;;;;;;;;5.40;64.20;;;4.18;50.85;100675.22;4972010;28;19932;-75
2023/02/26 01:22:53;;;;;;;;;;;5.40;64.20;;;4.18;51.00;100677.03;4989044;28;19934;-75
2023/02/26 01:25:25;;;;;;;;;;;5.40;64.00;;;4.19;51.22;100678.69;4971135;28;19972;-75
2023/02/26 01:27:56;;;;;;;;;;;5.40;64.60;;;4.14;50.90;100677.34;4974298;28;19925;-75
2023/02/26 01:30:24;;;;;;;;;;;5.50;64.20;;;4.17;50.95;100685.94;4973619;28;19933;-76
2023/02/26 01:32:58;;;;;;;;;;;5.40;64.30;;;4.27;50.81;100683.97;4971055;28;20382;-75
2023/02/26 01:35:41;;;;;;;;;;;5.40;64.40;;;4.25;51.09;100686.78;4966742;28;20504;-75
2023/02/26 01:38:17;;;;;;;;;;;5.40;64.50;;;4.36;51.14;100690.91;4989003;28;19937;-75
2023/02/26 01:41:14;;;;;;;;;;;5.50;64.60;;;4.41;50.61;100693.06;4971341;28;19930;-75
2023/02/26 01:43:49;;;;;;;;;;;5.50;64.10;;;4.36;50.63;100691.72;4971374;28;19977;-75
2023/02/26 01:46:21;;;;;;;;;;;5.50;64.20;;;4.30;50.08;100696.84;4973118;28;19934;-75
2023/02/26 01:48:51;;;;;;;;;;;5.50;63.60;;;4.24;50.31;100700.94;4993003;28;19936;-75
2023/02/26 01:51:19;;;;;;;;;;;5.50;63.80;;;4.29;50.42;100703.09;4975197;28;20017;-76
2023/02/26 01:53:47;;;;;;;;;;;5.50;63.60;;;4.35;50.22;100713.03;4975088;28;19926;-75
2023/02/26 01:56:17;;;;;;;;;;;5.50;63.70;;;4.22;49.19;100704.75;4974340;28;19929;-76
2023/02/26 01:58:49;;;;;;;;;;;5.40;62.20;;;3.97;49.46;100706.53;4974454;28;20464;-75
2023/02/26 02:01:16;;;;;;;;;;;5.40;62.20;;;3.87;50.16;100710.16;4980032;28;19930;-75
2023/02/26 02:03:43;;;;;;;;;;;5.30;62.60;;;3.84;50.11;100704.38;4992154;28;19926;-76
2023/02/26 02:06:15;;;;;;;;;;;5.20;62.50;;;3.79;50.28;100712.75;4989459;28;20022;-75
2023/02/26 02:08:42;;;;;;;;;;;5.20;62.90;;;3.77;49.75;100711.28;4970764;28;19973;-75
2023/02/26 02:11:13;;;;;;;;;;;5.20;62.60;;;3.81;50.25;100710.81;4988479;28;19934;-75
2023/02/26 02:13:55;;;;;;;;;;;5.20;63.10;;;3.74;49.53;100714.22;4998870;28;19999;-75
2023/02/26 02:16:31;;;;;;;;;;;5.10;62.60;;;3.79;49.58;100719.84;5001474;28;19926;-75
2023/02/26 02:19:08;;;;;;;;;;;5.10;62.80;;;3.73;50.18;100731.88;4974885;28;19925;-75
2023/02/26 02:21:52;;;;;;;;;;;5.00;62.90;;;3.72;50.00;100726.78;4988011;28;19926;-75
2023/02/26 02:24:25;;;;;;;;;;;5.10;62.60;;;3.84;49.94;100733.38;5006439;28;19930;-75
2023/02/26 02:27:03;;;;;;;;;;;5.00;62.90;;;3.90;49.56;100734.53;4993036;28;19988;-76
2023/02/26 02:30:03;;;;;;;;;;;5.10;63.20;;;3.90;49.22;100730.09;4991216;28;19942;-76
2023/02/26 02:32:36;;;;;;;;;;;5.10;62.80;;;3.93;49.52;100744.78;4991771;28;19952;-75
2023/02/26 02:35:09;;;;;;;;;;;5.10;62.60;;;3.94;49.27;100747.25;4991590;28;20279;-75
2023/02/26 02:37:40;;;;;;;;;;;5.10;62.60;;;3.94;49.13;100746.44;4970631;28;19936;-75
2023/02/26 02:40:11;;;;;;;;;;;5.20;62.40;;;3.98;49.29;100740.69;4975068;28;19930;-75
2023/02/26 02:42:43;;;;;;;;;;;5.20;62.70;;;4.03;49.05;100748.94;4988032;28;19948;-75
2023/02/26 02:45:14;;;;;;;;;;;5.20;62.40;;;3.99;49.33;100752.88;4990940;28;19934;-75
2023/02/26 02:47:46;;;;;;;;;;;5.20;62.30;;;3.96;48.98;100747.94;4991746;28;19952;-75
2023/02/26 02:50:17;;;;;;;;;;;5.10;61.80;;;4.04;49.00;100761.13;4977306;28;19938;-75
2023/02/26 02:52:48;;;;;;;;;;;5.20;62.00;;;4.08;49.06;100757.19;5005786;28;19930;-75
2023/02/26 02:55:17;;;;;;;;;;;5.20;62.40;;;4.10;49.10;100760.50;4992359;28;20374;-75
2023/02/26 02:57:48;;;;;;;;;;;5.30;62.10;;;4.08;48.68;100756.38;4989445;28;20545;-76
2023/02/26 03:00:17;;;;;;;;;;;5.30;61.60;;;4.11;48.86;100770.06;4994807;28;19952;-75
2023/02/26 03:02:51;;;;;;;;;;;5.30;62.10;;;4.11;48.78;100762.16;4991151;28;19930;-75
2023/02/26 03:05:18;;;;;;;;;;;5.30;61.90;;;4.07;48.56;100771.38;4989438;28;19932;-75
2023/02/26 03:07:53;;;;;;;;;;;5.20;61.60;;;4.08;48.88;100762.47;4991609;28;20497;-75
2023/02/26 03:10:20;;;;;;;;;;;5.20;61.60;;;3.85;48.20;100764.03;4990436;28;19929;-75
2023/02/26 03:12:47;;;;;;;;;;;5.10;60.80;;;3.85;48.51;100769.31;4990322;28;19930;-75
2023/02/26 03:15:15;;;;;;;;;;;5.10;61.00;;;3.90;49.07;100774.94;4973333;28;20024;-75
2023/02/26 03:17:54;;;;;;;;;;;5.10;61.70;;;3.95;49.08;100772.66;4973604;28;19925;-75
2023/02/26 03:20:26;;;;;;;;;;;5.20;61.90;;;3.98;49.03;100774.97;4972966;28;19930;-75
2023/02/26 03:23:04;;;;;;;;;;;5.10;62.00;;;3.90;48.78;100785.50;4973850;28;19932;-75
2023/02/26 03:25:38;;;;;;;;;;;5.10;61.60;;;3.93;48.94;100781.72;4991347;28;19936;-75
2023/02/26 03:28:09;;;;;;;;;;;5.20;62.00;;;3.92;49.44;100795.91;4973071;28;19929;-75
2023/02/26 03:30:40;;;;;;;;;;;5.20;62.20;;;3.96;49.39;100792.78;5006360;28;19929;-75
2023/02/26 03:33:13;;;;;;;;;;;5.10;62.30;;;3.82;49.45;100794.22;4971688;28;19930;-75
2023/02/26 03:35:47;;;;;;;;;;;5.10;62.20;;;3.83;49.55;100802.97;4973161;28;19940;-75
2023/02/26 03:38:25;;;;;;;;;;;5.10;62.60;;;3.93;49.80;100801.03;4973640;28;19925;-75
2023/02/26 03:40:57;;;;;;;;;;;5.10;62.80;;;3.85;49.44;100803.63;4986316;23;20016;-88
2023/02/26 03:43:31;;;;;;;;;;;5.10;62.60;;;3.85;49.57;100803.63;4974049;28;19946;-89
2023/02/26 03:46:02;;;;;;;;;;;5.10;62.90;;;3.86;49.92;100816.66;4972741;28;19976;-87
2023/02/26 03:48:31;;;;;;;;;;;5.00;63.00;;;3.88;49.60;100811.22;4971982;28;20393;-88
2023/02/26 03:51:02;;;;;;;;;;;5.00;62.90;;;3.90;49.76;100816.34;4966447;28;19930;-88
2023/02/26 03:53:54;;;;;;;;;;;5.00;63.30;;;3.92;49.73;100820.47;4963292;28;19939;-87
2023/02/26 03:56:28;;;;;;;;;;;5.00;63.20;;;3.81;49.85;100823.41;4953579;28;19926;-88
2023/02/26 03:58:55;;;;;;;;;;;5.00;63.00;;;3.77;50.07;100824.72;4971660;28;20317;-88
2023/02/26 04:01:44;;;;;;;;;;;5.00;63.30;;;3.78;49.79;100829.00;4972365;28;19937;-88
2023/02/26 04:04:17;;;;;;;;;;;5.00;63.20;;;3.74;49.90;100832.94;4951334;28;19933;-87
2023/02/26 04:06:44;;;;;;;;;;;5.20;63.50;;;3.75;50.10;100837.22;4981547;28;19932;-89
2023/02/26 04:09:11;;;;;;;;;;;4.90;63.60;;;3.75;50.10;100843.31;4966667;28;19935;-88
2023/02/26 04:11:39;;;;;;;;;;;4.90;63.50;;;3.56;50.41;100843.53;4970001;28;19926;-89
2023/02/26 04:14:06;;;;;;;;;;;4.80;63.40;;;3.56;50.94;100847.03;4953720;28;19926;-89
2023/02/26 04:16:38;;;;;;;;;;;4.80;64.10;;;3.69;50.61;100849.22;4973451;28;19985;-88
2023/02/26 04:19:05;;;;;;;;;;;4.80;64.00;;;3.75;50.75;100860.94;4949926;28;20605;-88
2023/02/26 04:21:34;;;;;;;;;;;4.90;64.30;;;3.76;50.46;100846.81;4953256;28;19930;-88
2023/02/26 04:24:01;;;;;;;;;;;4.90;64.20;;;3.73;50.62;100858.47;4962365;28;20462;-88
2023/02/26 04:26:28;;;;;;;;;;;4.90;64.00;;;3.74;50.34;100861.94;4969931;28;19930;-89
2023/02/26 04:28:55;;;;;;;;;;;4.90;64.00;;;3.69;50.33;100861.59;4953416;28;19930;-89
2023/02/26 04:31:22;;;;;;;;;;;4.90;64.10;;;3.48;50.41;100862.78;4967155;28;20020;-89
2023/02/26 04:33:49;;;;;;;;;;;4.80;63.70;;;3.49;51.00;100861.81;4953990;28;19926;-91
2023/02/26 04:36:17;;;;;;;;;;;4.80;63.90;;;3.46;50.89;100877.09;4959502;28;19933;-89
2023/02/26 04:38:45;;;;;;;;;;;4.70;64.20;;;3.45;50.97;100878.91;4953752;28;20379;-89
2023/02/26 04:41:12;;;;;;;;;;;4.70;64.30;;;3.43;50.81;100880.88;4969108;28;19965;-90
2023/02/26 04:43:39;;;;;;;;;;;4.70;64.30;;;3.33;51.50;100888.88;4967091;28;20446;-90
2023/02/26 04:46:36;;;;;;;;;;;4.60;64.60;;;3.49;51.56;100887.34;4963600;28;19930;-89
2023/02/26 04:49:03;;;;;;;;;;;4.60;65.10;;;3.48;51.19;100891.78;4953680;28;20483;-90
2023/02/26 04:51:30;;;;;;;;;;;4.70;64.60;;;3.52;51.18;100893.16;4953087;28;19940;-90
2023/02/26 04:53:59;;;;;;;;;;;4.70;64.80;;;3.52;50.84;100903.69;4962022;28;19937;-89
2023/02/26 04:56:27;;;;;;;;;;;4.70;64.80;;;3.24;50.74;100904.78;4950178;29;19930;-89
2023/02/26 04:58:54;;;;;;;;;;;4.60;64.00;;;3.16;51.21;100904.72;4964149;28;19931;-89
2023/02/26 05:01:27;;;;;;;;;;;4.50;64.60;;;3.24;51.42;100905.63;4966483;28;19930;-90
2023/02/26 05:03:54;;;;;;;;;;;4.50;64.70;;;3.19;51.09;100913.16;4967854;28;19930;-90
2023/02/26 05:06:21;;;;;;;;;;;4.50;64.30;;;3.08;51.25;100908.97;4953254;28;20403;-91
2023/02/26 05:08:48;;;;;;;;;;;4.40;64.50;;;2.95;51.22;100912.94;4980942;28;19933;-89
2023/02/26 05:11:16;;;;;;;;;;;4.40;64.30;;;3.07;51.27;100911.72;4972129;28;20049;-90
2023/02/26 05:13:43;;;;;;;;;;;4.40;64.70;;;3.14;51.42;100917.22;4953543;28;19969;-90
2023/02/26 05:16:11;;;;;;;;;;;4.40;64.90;;;3.13;51.12;100919.03;4969231;28;19932;-89
2023/02/26 05:18:38;;;;;;;;;;;4.40;64.80;;;3.18;51.48;100924.69;4953785;28;19937;-90
2023/02/26 05:21:05;;;;;;;;;;;4.40;65.00;;;3.21;50.92;100927.00;4967543;28;19926;-90
2023/02/26 05:23:33;;;;;;;;;;;4.40;64.70;;;3.13;51.12;100920.84;4955863;28;19929;-90
2023/02/26 05:26:01;;;;;;;;;;;4.30;64.40;;;3.12;51.21;100929.72;4986693;28;19956;-90
2023/02/26 05:28:29;;;;;;;;;;;4.30;64.90;;;3.05;51.22;100927.69;4974179;28;19926;-89
2023/02/26 05:30:57;;;;;;;;;;;4.30;64.80;;;3.20;51.28;100937.69;4957111;28;19985;-89
2023/02/26 05:33:25;;;;;;;;;;;4.40;64.90;;;3.25;51.02;100932.81;4957391;28;20375;-90
2023/02/26 05:35:52;;;;;;;;;;;4.40;64.70;;;3.30;51.36;100933.16;4955658;28;20030;-90
2023/02/26 05:38:20;;;;;;;;;;;4.50;64.80;;;2.76;51.40;100935.81;4975550;28;20013;-89
2023/02/26 05:40:47;;;;;;;;;;;4.40;64.00;;;2.82;51.72;100934.38;4988803;28;19993;-89
2023/02/26 05:43:14;;;;;;;;;;;4.30;64.60;;;2.96;51.21;100935.66;4959389;28;19934;-89
2023/02/26 05:45:42;;;;;;;;;;;4.30;64.80;;;2.85;51.63;100952.53;4972994;28;19926;-89
2023/02/26 05:48:10;;;;;;;;;;;4.20;64.50;;;2.79;51.34;100940.78;4972401;28;19985;-90
2023/02/26 05:50:37;;;;;;;;;;;4.20;64.70;;;2.94;51.42;100935.81;4957152;28;20291;-89
2023/02/26 05:53:04;;;;;;;;;;;4.20;65.20;;;2.94;51.33;100942.91;4957358;28;19929;-90
2023/02/26 05:55:31;;;;;;;;;;;4.20;65.00;;;2.84;51.35;100946.44;4963814;28;19976;-88
2023/02/26 05:57:58;;;;;;;;;;;4.10;64.80;;;2.91;51.50;100954.56;4973310;28;20382;-86
2023/02/26 06:00:25;;;;;;;;;;;4.10;65.00;;;2.98;51.02;100968.81;4971927;28;19969;-84
2023/02/26 06:02:54;;;;;;;;;;;4.20;64.80;;;2.93;51.33;100967.56;4972033;28;19934;-81
2023/02/26 06:05:21;;;;;;;;;;;4.20;64.60;;;2.98;50.82;100983.78;4987349;28;20298;-81
2023/02/26 06:07:48;;;;;;;;;;;4.20;64.70;;;3.05;51.13;100985.66;4977539;28;19930;-81
2023/02/26 06:10:15;;;;;;;;;;;4.20;64.90;;;2.85;51.13;100989.41;4964219;28;19930;-81
2023/02/26 06:12:42;;;;;;;;;;;4.20;64.40;;;2.84;51.07;100995.66;4955481;28;19941;-81
2023/02/26 06:15:09;;;;;;;;;;;4.10;64.50;;;2.77;50.95;100994.56;4973242;28;19930;-81
2023/02/26 06:17:36;;;;;;;;;;;4.10;64.60;;;2.90;51.36;101002.97;4970264;28;19934;-81
2023/02/26 06:20:05;;;;;;;;;;;4.10;65.20;;;2.93;50.93;100997.41;4975434;28;19930;-81
2023/02/26 06:22:32;;;;;;;;;;;4.10;64.90;;;2.95;51.12;101016.50;4974707;28;19934;-81
2023/02/26 06:24:59;;;;;;;;;;;4.10;64.90;;;2.92;51.31;101016.78;4972587;28;19937;-81
2023/02/26 06:27:26;;;;;;;;;;;4.10;65.00;;;3.00;51.40;101019.53;4972850;28;19933;-81
2023/02/26 06:29:53;;;;;;;;;;;4.20;65.00;;;2.93;51.05;101017.63;4980006;28;19933;-81
2023/02/26 06:32:20;;;;;;;;;;;4.20;64.50;;;2.99;51.01;101031.06;4965954;28;19927;-81
2023/02/26 06:34:47;;;;;;;;;;;4.20;64.80;;;3.03;51.14;101028.97;4972920;28;19930;-81
2023/02/26 06:37:16;;;;;;;;;;;4.20;65.00;;;2.93;50.85;101034.28;4972227;28;20390;-81
2023/02/26 06:39:43;;;;;;;;;;;4.10;64.70;;;2.99;51.01;101038.94;4972724;28;19981;-81
2023/02/26 06:42:10;;;;;;;;;;;4.20;64.60;;;3.01;50.98;101051.97;4971359;28;19930;-81
2023/02/26 06:44:36;;;;;;;;;;;4.10;64.80;;;3.01;51.26;101049.34;4982746;28;19926;-81
2023/02/26 06:47:03;;;;;;;;;;;4.10;65.00;;;3.02;50.86;101057.09;4976703;28;19933;-81
2023/02/26 06:49:30;;;;;;;;;;;4.20;64.80;;;3.06;51.04;101066.34;4972352;28;19933;-81
2023/02/26 06:51:57;;;;;;;;;;;4.20;64.80;;;3.06;51.04;101065.53;4978074;28;20399;-79
2023/02/26 06:54:26;;;;;;;;;;;4.10;65.00;;;2.98;51.01;101076.81;4974490;28;20211;-79
2023/02/26 06:56:56;;;;;;;;;;;4.10;65.00;;;2.91;50.78;101073.09;4977361;28;20481;-80
2023/02/26 06:59:23;;;;;;;;;;;4.10;64.90;;;2.87;51.41;101076.16;4980819;28;19937;-80
2023/02/26 07:01:50;;;;;;;;;;;4.00;65.20;;;2.98;51.24;101078.63;4972158;28;19930;-80
2023/02/26 07:04:17;;;;;;;;;;;4.10;65.20;;;2.78;51.17;101091.88;4972268;28;19933;-80
2023/02/26 07:06:44;;;;;;;;;;;4.00;64.80;;;2.92;51.18;101095.00;4963285;28;19934;-80
2023/02/26 07:09:11;;;;;;;;;;;4.00;64.70;;;2.82;50.83;101093.22;4972085;28;19927;-80
2023/02/26 07:11:39;;;;;;;;;;;4.10;64.60;;;2.84;51.23;101098.38;4971773;28;19930;-80
2023/02/26 07:14:06;;;;;;;;;;;4.00;64.80;;;2.80;51.21;101097.84;4978946;28;20415;-80
2023/02/26 07:16:33;;;;;;;;;;;4.00;64.80;;;2.45;51.75;101102.94;4969119;28;20433;-80
2023/02/26 07:19:03;;;;;;;;;;;3.90;64.80;;;2.60;51.88;101105.97;4971984;28;19937;-80
2023/02/26 07:21:30;;;;;;;;;;;3.90;65.40;;;2.51;52.07;101111.09;4954108;28;19942;-80
2023/02/26 07:23:57;;;;;;;;;;;3.90;65.20;;;2.54;52.04;101126.63;4971843;28;19926;-80
2023/02/26 07:26:24;;;;;;;;;;;3.90;65.60;;;2.70;52.39;101122.56;4965911;28;20368;-80
2023/02/26 07:28:52;;;;;;;;;;;3.90;65.80;;;2.80;51.88;101123.34;4984831;28;19980;-80
2023/02/26 07:31:19;;;;;;;;;;;4.00;65.80;;;2.81;51.70;101125.00;4973400;28;19937;-80
2023/02/26 07:33:46;;;;;;;;;;;4.00;65.60;;;2.86;51.73;101127.19;4972188;28;19934;-80
2023/02/26 07:36:13;;;;;;;;;;;4.00;65.80;;;2.91;51.97;101131.06;4971509;28;19940;-81
2023/02/26 07:38:41;;;;;;;;;;;4.00;65.80;;;2.93;51.69;101134.41;4961655;28;19949;-79
2023/02/26 07:41:08;;;;;;;;;;;4.00;65.60;;;3.00;51.73;101140.72;4971532;28;20391;-80
2023/02/26 07:43:35;;;;;;;;;;;4.10;65.90;;;2.97;51.56;101148.91;4952340;28;19929;-80
2023/02/26 07:46:04;;;;;;;;;;;4.10;65.70;;;2.86;51.37;101146.47;4978931;28;19927;-80
2023/02/26 07:48:31;;;;;;;;;;;4.10;65.40;;;2.82;52.05;101153.00;4972424;28;19930;-80
2023/02/26 07:50:58;;;;;;;;;;;4.10;65.80;;;2.76;52.15;101156.22;4976446;28;20006;-80
2023/02/26 07:53:25;;;;;;;;;;;4.00;65.50;;;2.86;51.88;101159.63;4979222;28;19930;-80
2023/02/26 07:55:52;;;;;;;;;;;4.00;65.60;;;2.93;52.02;101163.38;4970724;28;19926;-80
2023/02/26 07:58:19;;;;;;;;;;;4.10;66.10;;;2.48;51.77;101165.81;4970698;28;19993;-80
2023/02/26 08:00:46;;;;;;;;;;;4.00;64.90;;;2.55;52.42;101170.41;4983035;28;20283;-82
2023/02/26 08:03:15;;;;;;;;;;;3.90;65.60;;;2.62;52.45;101161.94;4971081;28;19926;-81
2023/02/26 08:05:42;;;;;;;;;;;3.90;66.10;;;2.80;52.46;101174.22;4970954;28;19929;-87
2023/02/26 08:08:09;;;;;;;;;;;4.00;66.40;;;2.86;51.97;101171.97;4971691;28;20391;-86
2023/02/26 08:10:36;;;;;;;;;;;4.00;65.90;;;2.89;51.65;101169.06;4952321;28;19937;-83
2023/02/26 08:13:03;;;;;;;;;;;4.00;65.90;;;2.66;51.98;101163.31;4950819;28;19926;-84
2023/02/26 08:15:30;;;;;;;;;;;4.00;65.70;;;2.75;52.08;101170.34;4982632;28;20630;-84
2023/02/26 08:17:57;;;;;;;;;;;3.90;65.80;;;2.79;51.59;101167.28;4983891;28;20279;-84
2023/02/26 08:20:25;;;;;;;;;;;4.00;65.80;;;2.58;51.64;101175.34;4968730;28;19934;-88
2023/02/26 08:22:52;;;;;;;;;;;3.90;65.10;;;2.47;52.04;101177.34;4972731;28;19926;-78
2023/02/26 08:25:19;;;;;;;;;;;3.80;65.30;;;2.58;52.23;101190.34;4988223;28;19929;-78
2023/02/26 08:27:46;;;;;;;;;;;3.90;65.90;;;2.44;52.15;101178.47;4976257;28;19950;-78
2023/02/26 08:30:14;;;;;;;;;;;3.80;65.30;;;2.36;52.25;101185.41;4971038;28;20398;-78
2023/02/26 08:32:41;;;;;;;;;;;3.80;65.20;;;2.40;52.59;101192.88;4966264;28;19930;-83
2023/02/26 08:35:08;;;;;;;;;;;3.80;66.00;;;2.60;52.29;101198.13;4968396;28;19933;-83
2023/02/26 08:37:37;;;;;;;;;;;3.80;66.20;;;2.64;52.00;101194.22;4980854;28;19941;-82
2023/02/26 08:40:05;;;;;;;;;;;3.90;65.60;;;2.77;51.23;101203.47;4974701;28;20367;-82
2023/02/26 08:42:32;;;;;;;;;;;4.00;65.10;;;2.81;51.11;101211.91;4970781;28;19930;-83
2023/02/26 08:44:59;;;;;;;;;;;4.00;64.80;;;2.71;51.00;101209.31;4968655;28;19930;-81
2023/02/26 08:47:26;;;;;;;;;;;4.00;64.40;;;2.77;51.06;101218.44;4967289;28;19944;-82
2023/02/26 08:49:53;;;;;;;;;;;4.00;64.50;;;2.87;51.26;101207.88;4969492;28;20390;-79
2023/02/26 08:52:20;;;;;;;;;;;4.00;65.00;;;2.76;50.31;101207.06;4973223;28;19926;-80
2023/02/26 08:54:48;;;;;;;;;;;4.10;64.10;;;2.68;50.07;101224.56;4975528;28;19926;-79
2023/02/26 08:57:15;;;;;;;;;;;4.10;63.20;;;2.60;50.28;101224.44;4969203;28;19930;-79
2023/02/26 08:59:42;;;;;;;;;;;4.00;63.10;;;2.65;50.34;101238.00;4966380;28;19926;-80
2023/02/26 09:02:10;;;;;;;;;;;4.00;63.40;;;2.52;50.52;101247.03;4972888;28;19934;-80
2023/02/26 09:04:37;;;;;;;;;;;4.00;63.30;;;2.53;50.64;101232.88;4958267;28;19926;-80
2023/02/26 09:07:05;;;;;;;;;;;3.90;63.40;;;2.77;51.05;101244.78;4959912;28;20387;-80
2023/02/26 09:09:32;;;;;;;;;;;4.10;64.60;;;2.75;50.08;101244.09;4964165;28;20378;-80
2023/02/26 09:12:00;;;;;;;;;;;4.10;63.30;;;2.74;50.67;101245.91;4970614;28;19926;-80
2023/02/26 09:14:27;;;;;;;;;;;4.10;63.70;;;2.84;50.21;101259.88;4964644;28;19927;-80
2023/02/26 09:16:54;;;;;;;;;;;4.10;63.40;;;2.79;49.76;101246.31;4964539;28;20483;-80
2023/02/26 09:19:21;;;;;;;;;;;4.10;62.60;;;2.89;50.08;101248.94;4970869;28;19941;-80
2023/02/26 09:21:48;;;;;;;;;;;4.20;63.10;;;3.06;50.27;101260.53;4975406;28;19934;-80
2023/02/26 09:24:15;;;;;;;;;;;4.20;63.60;;;3.06;49.94;101258.72;4950133;28;19935;-80
2023/02/26 09:26:42;;;;;;;;;;;4.30;63.40;;;3.05;50.25;101264.97;4970072;28;20002;-80
2023/02/26 09:29:12;;;;;;;;;;;4.30;63.40;;;3.15;49.72;101266.75;4973035;28;19931;-81
2023/02/26 09:31:39;;;;;;;;;;;4.30;63.20;;;3.05;49.69;101274.69;4953004;28;19954;-80
2023/02/26 09:34:06;;;;;;;;;;;4.30;62.60;;;3.16;49.79;101281.56;4974077;28;19926;-80
2023/02/26 09:36:33;;;;;;;;;;;4.40;63.00;;;3.24;50.03;101276.44;4978842;28;20021;-80
2023/02/26 09:39:00;;;;;;;;;;;4.40;63.10;;;3.30;49.60;101279.31;4970059;28;19934;-80
2023/02/26 09:41:30;;;;;;;;;;;4.50;63.00;;;3.26;49.24;101296.38;4998066;23;19937;-74
2023/02/26 09:44:05;;;;;;;;;;;4.50;62.50;;;3.23;49.02;101287.97;4989614;28;19933;-76
2023/02/26 09:46:40;;;;;;;;;;;4.50;62.20;;;3.26;48.98;101290.28;4995000;28;19930;-73
2023/02/26 09:49:18;;;;;;;;;;;4.50;62.10;;;3.28;49.25;101280.44;4981495;28;20390;-76
2023/02/26 09:51:47;;;;;;;;;;;4.40;62.20;;;3.22;49.07;101292.41;4990617;28;19984;-74
2023/02/26 09:54:16;;;;;;;;;;;4.50;62.20;;;3.25;49.10;101296.53;4989636;28;19932;-74
2023/02/26 09:56:44;;;;;;;;;;;4.40;61.90;;;2.95;48.09;101297.59;4988836;28;19932;-74
2023/02/26 09:59:11;;;;;;;;;;;4.30;60.50;;;3.00;48.65;101306.72;4981993;28;19933;-76
2023/02/26 10:01:45;;;;;;;;;;;4.40;61.40;;;3.11;49.11;101305.72;5000369;28;19925;-74
2023/02/26 10:04:24;;;;;;;;;;;4.40;61.60;;;3.23;49.40;101306.41;5004392;28;19930;-74
2023/02/26 10:07:01;;;;;;;;;;;4.50;62.60;;;3.29;49.34;101306.66;4999997;28;19969;-74
2023/02/26 10:09:36;;;;;;;;;;;4.50;62.60;;;3.41;49.06;101306.47;4986759;28;20028;-74
2023/02/26 10:12:06;;;;;;;;;;;4.60;62.40;;;3.28;48.36;101312.09;5001824;28;19930;-74
2023/02/26 10:14:37;;;;;;;;;;;4.50;61.60;;;3.15;48.19;101303.66;5012051;28;19930;-76
2023/02/26 10:17:09;;;;;;;;;;;4.50;60.90;;;3.17;48.72;101317.50;5004730;28;20463;-74
2023/02/26 10:19:40;;;;;;;;;;;4.50;61.20;;;3.19;47.83;101310.28;5006353;28;19930;-74
2023/02/26 10:22:16;;;;;;;;;;;4.50;59.70;;;3.19;48.62;101324.31;4999868;28;19936;-74
2023/02/26 10:24:46;;;;;;;;;;;4.50;60.80;;;3.30;48.87;101320.66;4973448;28;19930;-74
2023/02/26 10:27:16;;;;;;;;;;;4.60;61.10;;;3.30;48.12;101320.66;5008715;28;19926;-74
2023/02/26 10:29:48;;;;;;;;;;;4.60;60.10;;;3.32;47.76;101319.56;5012189;28;19933;-74
2023/02/26 10:32:23;;;;;;;;;;;4.60;59.60;;;3.29;47.56;101330.38;5001555;28;19936;-74
2023/02/26 10:34:55;;;;;;;;;;;4.60;59.40;;;3.43;48.01;101321.19;5000971;28;19929;-74
2023/02/26 10:37:39;;;;;;;;;;;4.70;60.50;;;3.43;47.98;101326.47;5009250;28;20003;-74
2023/02/26 10:40:12;;;;;;;;;;;4.70;59.80;;;3.48;47.23;101329.50;4990449;28;19930;-76
2023/02/26 10:42:44;;;;;;;;;;;4.70;59.40;;;3.48;47.31;101340.03;4991736;28;20292;-73
2023/02/26 10:45:29;;;;;;;;;;;4.70;59.00;;;3.33;46.00;101334.41;4997973;28;20028;-74
2023/02/26 10:48:09;;;;;;;;;;;4.70;58.40;;;3.30;46.81;101337.31;4996184;28;19929;-74
2023/02/26 10:50:39;;;;;;;;;;;4.60;58.30;;;3.33;46.80;101341.47;4993790;28;19944;-74
2023/02/26 10:53:06;;;;;;;;;;;4.60;58.90;;;3.20;46.56;101344.41;5005538;28;19936;-74
2023/02/26 10:55:38;;;;;;;;;;;4.60;58.70;;;3.33;46.75;101337.03;4989947;28;20090;-75
2023/02/26 10:58:10;;;;;;;;;;;4.60;58.20;;;3.46;46.68;101347.25;4996080;28;19926;-77
2023/02/26 11:00:37;;;;;;;;;;;4.60;58.80;;;3.45;45.43;101342.13;4988552;28;19925;-76
2023/02/26 11:03:06;;;;;;;;;;;4.70;58.30;;;3.37;45.87;101334.94;4990162;28;20383;-76
2023/02/26 11:05:34;;;;;;;;;;;4.60;57.90;;;3.49;45.63;101349.63;5011007;28;19930;-76
2023/02/26 11:08:03;;;;;;;;;;;4.70;57.80;;;3.47;44.87;101341.03;5011171;28;19929;-76
2023/02/26 11:10:40;;;;;;;;;;;4.70;57.50;;;3.54;45.86;101343.91;5011265;28;20108;-76
2023/02/26 11:13:07;;;;;;;;;;;4.70;58.00;;;3.65;46.33;101351.63;5002845;28;19925;-76
2023/02/26 11:15:35;;;;;;;;;;;4.80;58.60;;;3.52;43.96;101335.31;4991711;28;19934;-76
2023/02/26 11:18:02;;;;;;;;;;;4.80;55.70;;;3.52;44.94;101337.97;5001095;28;20390;-76
2023/02/26 11:20:36;;;;;;;;;;;4.80;57.00;;;3.57;44.92;101349.75;5000067;28;19933;-75
2023/02/26 11:23:04;;;;;;;;;;;4.80;57.00;;;3.58;44.34;101334.75;4991715;28;19929;-75
2023/02/26 11:25:32;;;;;;;;;;;4.80;56.10;;;3.66;44.48;101350.69;4988998;28;19930;-75
2023/02/26 11:28:02;;;;;;;;;;;4.80;56.90;;;3.64;44.28;101343.88;5004331;28;19961;-76
2023/02/26 11:30:32;;;;;;;;;;;4.80;55.80;;;3.66;43.79;101365.66;4998990;28;19930;-75
2023/02/26 11:33:07;;;;;;;;;;;4.90;56.20;;;3.73;44.04;101346.47;5005892;28;19930;-76
2023/02/26 11:35:35;;;;;;;;;;;4.90;55.60;;;3.79;44.06;101352.97;5007734;28;19929;-76